Time;durP1;ratioP1;P1;durP2;ratioP2;P2;SDS_P1;SDS_P2;PMS_P1;PMS_P2;Temp;Humidity;BMP_temperature;BMP_pressure;BME280_temperature;BME280_humidity;BME280_pressure;Samples;Min_cycle;Max_cycle;Signal;HPM_P1;HPM_P2
2022/08/28 00:01:45;;;;;;;17.65;5.42;;;;;;;23.76;49.99;99212.57;1702797;83;20982;-72
2022/08/28 00:04:11;;;;;;;12.75;5.33;;;;;;;23.75;50.45;99208.19;1732309;80;21801;-70
2022/08/28 00:06:38;;;;;;;12.55;5.67;;;;;;;23.71;52.59;99205.49;1739108;80;20956;-69
2022/08/28 00:09:05;;;;;;;13.62;5.83;;;;;;;23.71;52.59;99205.49;1740323;80;21499;-70
2022/08/28 00:11:36;;;;;;;11.60;5.37;;;;;;;23.60;53.12;99208.45;1744190;80;21573;-70
2022/08/28 00:14:07;;;;;;;15.55;5.08;;;;;;;23.45;54.48;99205.05;1707343;82;21660;-71
2022/08/28 00:16:35;;;;;;;14.45;5.85;;;;;;;23.39;56.06;99209.69;1708891;82;21565;-69
2022/08/28 00:19:02;;;;;;;15.20;5.70;;;;;;;23.35;57.33;99205.64;1705112;83;21571;-70
2022/08/28 00:21:30;;;;;;;17.62;5.78;;;;;;;23.33;57.78;99204.95;1708058;82;21478;-70
2022/08/28 00:23:56;;;;;;;11.03;4.75;;;;;;;23.31;58.77;99201.59;1703821;82;21439;-69
2022/08/28 00:29:08;;;;;;;14.05;5.33;;;;;;;23.24;59.78;99202.71;1702147;82;21517;-70
2022/08/28 00:31:38;;;;;;;13.58;5.70;;;;;;;23.19;59.75;99206.39;1705129;82;21077;-72
2022/08/28 00:34:07;;;;;;;11.40;5.03;;;;;;;23.17;60.39;99212.41;1703323;83;21592;-70
2022/08/28 00:36:34;;;;;;;11.70;5.15;;;;;;;23.15;60.44;99214.41;1701240;83;28755;-68
2022/08/28 00:39:00;;;;;;;13.50;4.73;;;;;;;23.11;60.05;99215.70;1710493;82;21071;-70
2022/08/28 00:41:30;;;;;;;17.02;4.75;;;;;;;23.13;57.90;99214.56;1703642;83;21441;-71
2022/08/28 00:44:13;;;;;;;18.32;5.65;;;;;;;23.13;57.90;99214.56;1677112;83;21506;-70
2022/08/28 00:46:42;;;;;;;16.50;5.12;;;;;;;23.19;57.47;99214.44;1692462;82;21449;-69
2022/08/28 00:49:09;;;;;;;21.23;5.28;;;;;;;23.26;56.63;99208.79;1701838;82;21453;-71
2022/08/28 00:54:22;;;;;;;13.75;5.00;;;;;;;23.43;56.11;99206.19;1704618;82;21814;-69
2022/08/28 00:56:49;;;;;;;19.52;6.00;;;;;;;23.49;54.58;99202.89;1702894;82;21533;-71
2022/08/28 00:59:17;;;;;;;16.85;5.22;;;;;;;23.54;54.83;99203.73;1711130;82;21558;-69
2022/08/28 01:01:45;;;;;;;10.25;4.70;;;;;;;23.57;54.47;99198.89;1700785;82;21052;-70
2022/08/28 01:04:15;;;;;;;;;;;;;;;23.61;55.77;99205.63;1710704;82;21057;-72
2022/08/28 01:06:44;;;;;;;11.22;5.03;;;;;;;23.60;60.31;99201.27;1671666;83;21820;-71
2022/08/28 01:09:14;;;;;;;14.07;5.30;;;;;;;23.51;57.67;99203.56;1726889;81;21074;-70
2022/08/28 01:11:42;;;;;;;14.68;4.58;;;;;;;23.48;56.91;99198.00;1733816;80;21484;-71
2022/08/28 01:14:12;;;;;;;18.62;4.60;;;;;;;23.48;55.95;99191.30;1724723;81;21489;-68
2022/08/28 01:16:40;;;;;;;15.85;4.33;;;;;;;23.49;55.35;99189.48;1722194;81;21641;-72
2022/08/28 01:19:10;;;;;;;9.83;4.30;;;;;;;23.52;54.79;99189.97;1725808;80;21806;-70
2022/08/28 01:22:21;;;;;;;20.35;4.60;;;;;;;23.60;53.78;99187.86;1733707;82;21508;-68
2022/08/28 01:24:49;;;;;;;15.18;4.90;;;;;;;23.66;53.10;99172.95;1724443;81;21491;-68
2022/08/28 01:27:15;;;;;;;18.05;4.33;;;;;;;23.71;53.21;99166.10;1729134;81;21023;-68
2022/08/28 01:29:42;;;;;;;14.80;4.33;;;;;;;23.76;53.71;99168.28;1727302;81;21419;-69
2022/08/28 01:32:09;;;;;;;15.90;4.53;;;;;;;23.75;52.97;99157.70;1724265;81;21807;-69
2022/08/28 01:34:35;;;;;;;11.28;4.17;;;;;;;23.78;53.77;99160.08;1728489;80;21586;-70
2022/08/28 01:37:02;;;;;;;12.40;4.33;;;;;;;23.74;53.84;99146.65;1732935;81;21528;-70
2022/08/28 01:39:29;;;;;;;20.68;4.92;;;;;;;23.69;54.17;99135.88;1727127;81;20982;-70
2022/08/28 01:41:58;;;;;;;10.18;4.37;;;;;;;23.58;54.19;99124.09;1728531;81;21054;-69
2022/08/28 01:44:26;;;;;;;13.13;4.95;;;;;;;23.58;54.19;99124.09;1727806;81;21902;-70
2022/08/28 01:46:55;;;;;;;16.02;4.62;;;;;;;23.59;54.06;99121.77;1694406;82;21610;-69
2022/08/28 01:49:23;;;;;;;15.60;4.45;;;;;;;23.60;54.20;99116.75;1730125;80;21523;-69
2022/08/28 01:51:50;;;;;;;13.13;4.92;;;;;;;23.62;54.79;99113.41;1686303;82;21042;-69
2022/08/28 01:54:16;;;;;;;16.20;4.12;;;;;;;23.64;55.36;99111.87;1691501;82;21498;-70
2022/08/28 01:56:43;;;;;;;16.40;4.40;;;;;;;23.62;55.73;99107.17;1686950;84;21832;-69
2022/08/28 01:59:11;;;;;;;12.15;4.15;;;;;;;23.56;55.79;99103.80;1730535;81;21620;-70
2022/08/28 02:01:38;;;;;;;12.50;4.25;;;;;;;23.51;55.39;99104.30;1686659;84;21001;-68
2022/08/28 02:04:05;;;;;;;10.43;4.03;;;;;;;23.47;55.36;99105.60;1693893;82;21005;-69
2022/08/28 02:06:32;;;;;;;17.10;4.67;;;;;;;23.44;54.95;99105.95;1689318;83;20961;-70
2022/08/28 02:08:59;;;;;;;13.98;4.25;;;;;;;23.44;54.95;99105.95;1691981;82;21931;-69
2022/08/28 02:11:28;;;;;;;16.52;4.25;;;;;;;23.52;54.89;99111.33;1694146;82;21491;-72
2022/08/28 02:13:54;;;;;;;14.35;4.33;;;;;;;23.55;54.36;99114.21;1693846;82;21531;-72
2022/08/28 02:16:22;;;;;;;11.75;4.03;;;;;;;23.55;54.36;99110.19;1727124;81;21597;-73
2022/08/28 02:18:49;;;;;;;15.10;4.60;;;;;;;23.57;54.75;99115.72;1726091;81;21600;-73
2022/08/28 02:21:15;;;;;;;15.50;4.75;;;;;;;23.56;54.82;99113.19;1733910;81;21896;-71
2022/08/28 02:23:42;;;;;;;13.47;4.67;;;;;;;23.56;54.82;99113.19;1727498;81;21611;-73
2022/08/28 02:26:09;;;;;;;16.30;4.97;;;;;;;23.54;54.28;99120.06;1727931;80;21511;-71
2022/08/28 02:28:36;;;;;;;15.10;4.20;;;;;;;23.49;55.06;99118.38;1729349;80;21820;-71
2022/08/28 02:31:07;;;;;;;12.28;4.58;;;;;;;23.46;55.97;99117.35;1728721;81;21552;-73
2022/08/28 02:33:37;;;;;;;12.78;4.65;;;;;;;23.46;55.97;99117.35;1733414;81;21505;-71
2022/08/28 02:36:06;;;;;;;11.85;3.80;;;;;;;23.44;56.68;99115.33;1723822;81;21493;-72
2022/08/28 02:38:33;;;;;;;14.78;3.85;;;;;;;23.40;56.60;99118.00;1727135;81;21626;-70
2022/08/28 02:40:59;;;;;;;9.73;4.75;;;;;;;23.39;56.86;99118.98;1729632;81;21562;-70
2022/08/28 02:43:26;;;;;;;14.28;4.35;;;;;;;23.43;56.23;99116.32;1732967;80;22208;-71
2022/08/28 02:45:52;;;;;;;16.70;4.60;;;;;;;23.43;56.23;99116.32;1720851;81;21762;-71
2022/08/28 02:48:19;;;;;;;11.75;4.05;;;;;;;23.44;55.81;99116.67;1727754;80;21504;-72
2022/08/28 02:50:46;;;;;;;14.33;4.30;;;;;;;23.45;55.24;99119.20;1724252;81;21574;-72
2022/08/28 02:53:13;;;;;;;15.63;4.40;;;;;;;23.57;54.50;99119.75;1727145;81;21566;-71
2022/08/28 02:55:39;;;;;;;10.18;3.92;;;;;;;23.57;54.50;99119.75;1721957;81;21527;-72
2022/08/28 02:58:08;;;;;;;9.85;4.20;;;;;;;23.65;53.86;99119.77;1728779;81;22154;-72
2022/08/28 03:00:35;;;;;;;16.12;4.47;;;;;;;23.69;52.86;99122.97;1728470;80;21456;-73
2022/08/28 03:03:02;;;;;;;12.68;3.50;;;;;;;23.69;52.86;99122.97;1722941;81;21536;-71
2022/08/28 03:05:28;;;;;;;11.78;3.90;;;;;;;23.72;52.22;99128.02;1725906;81;21417;-71
2022/08/28 03:07:55;;;;;;;20.48;3.83;;;;;;;23.77;51.87;99120.33;1697155;82;21416;-72
2022/08/28 03:10:22;;;;;;;11.12;4.30;;;;;;;23.76;51.41;99124.52;1723808;81;21768;-73
2022/08/28 03:12:50;;;;;;;13.28;4.30;;;;;;;23.76;51.41;99124.52;1727716;81;21054;-70
2022/08/28 03:15:17;;;;;;;10.28;3.67;;;;;;;23.80;51.21;99127.23;1725464;81;21620;-70
2022/08/28 03:17:45;;;;;;;17.85;4.05;;;;;;;23.85;51.02;99132.96;1733150;80;21499;-72
2022/08/28 03:20:12;;;;;;;14.83;4.10;;;;;;;23.88;50.55;99132.62;1731002;81;21083;-72
2022/08/28 03:25:25;;;;;;;15.03;4.30;;;;;;;23.97;50.16;99138.86;1725504;82;21492;-72
2022/08/28 03:27:52;;;;;;;12.07;4.40;;;;;;;23.97;50.54;99141.03;1725473;81;21653;-70
2022/08/28 03:30:19;;;;;;;13.15;3.90;;;;;;;23.99;50.93;99137.67;1731726;81;21638;-71
2022/08/28 03:32:45;;;;;;;9.45;4.12;;;;;;;24.01;50.35;99146.91;1690673;82;21526;-71
2022/08/28 03:35:12;;;;;;;19.67;4.33;;;;;;;24.02;50.00;99150.78;1728216;80;21989;-70
2022/08/28 03:37:38;;;;;;;13.03;4.53;;;;;;;24.05;50.98;99155.84;1733368;80;21599;-71
2022/08/28 03:40:07;;;;;;;9.03;3.67;;;;;;;24.06;51.28;99162.87;1683281;82;21024;-70
2022/08/28 03:42:34;;;;;;;11.15;4.60;;;;;;;24.08;51.26;99166.74;1689094;82;21493;-70
2022/08/28 03:45:03;;;;;;;9.75;3.80;;;;;;;24.02;52.69;99166.06;1737658;81;21488;-71
2022/08/28 03:47:29;;;;;;;;;;;;;;;24.05;53.30;99179.14;1722250;80;21775;-70
2022/08/28 03:49:57;;;;;;;10.60;4.50;;;;;;;24.03;54.59;99190.04;1720763;81;20447;-71
2022/08/28 03:52:23;;;;;;;12.58;4.40;;;;;;;23.97;53.43;99193.38;1725157;80;21029;-71
2022/08/28 03:54:50;;;;;;;10.58;4.22;;;;;;;23.93;53.90;99196.06;1724388;81;21510;-72
2022/08/28 03:57:18;;;;;;;8.80;4.27;;;;;;;23.88;54.31;99203.27;1726981;81;21479;-71
2022/08/28 03:59:47;;;;;;;15.58;4.85;;;;;;;23.82;54.40;99187.80;1725499;81;22184;-71
2022/08/28 04:02:14;;;;;;;9.60;4.28;;;;;;;23.88;54.34;99195.70;1725502;81;21527;-70
2022/08/28 04:04:40;;;;;;;13.88;4.75;;;;;;;23.85;54.70;99190.67;1724656;80;21504;-71
2022/08/28 04:07:07;;;;;;;15.20;4.58;;;;;;;23.83;55.20;99193.52;1732257;80;21453;-71
2022/08/28 04:09:34;;;;;;;11.18;4.45;;;;;;;23.79;55.57;99182.77;1725371;79;21507;-69
2022/08/28 04:12:00;;;;;;;15.88;4.80;;;;;;;23.70;55.94;99176.99;1692736;84;21569;-71
2022/08/28 04:14:26;;;;;;;13.43;7.00;;;;;;;23.69;55.90;99174.78;1679805;83;21055;-71
2022/08/28 04:16:53;;;;;;;21.00;13.55;;;;;;;23.70;56.01;99169.77;1675451;83;21605;-70
2022/08/28 04:19:20;;;;;;;38.45;24.92;;;;;;;23.55;56.20;99164.68;1674275;83;21661;-72
2022/08/28 04:21:47;;;;;;;27.90;14.77;;;;;;;23.55;56.20;99164.68;1680119;83;21432;-70
2022/08/28 04:24:14;;;;;;;25.12;10.55;;;;;;;23.54;55.85;99167.01;1681388;83;21951;-71
2022/08/28 04:26:40;;;;;;;20.68;8.58;;;;;;;23.53;55.86;99155.95;1727448;80;21085;-70
2022/08/28 04:29:07;;;;;;;26.20;9.88;;;;;;;23.49;56.00;99143.87;1732454;81;21641;-68
2022/08/28 04:31:34;;;;;;;25.45;10.65;;;;;;;23.44;56.29;99146.19;1695591;82;21467;-68
2022/08/28 04:34:04;;;;;;;23.20;10.75;;;;;;;23.40;56.37;99139.46;1723070;81;21548;-69
2022/08/28 04:36:35;;;;;;;17.25;7.30;;;;;;;23.40;56.37;99139.46;1725033;81;21818;-65
2022/08/28 04:39:04;;;;;;;21.15;6.53;;;;;;;23.27;57.62;99134.02;1728467;81;21588;-67
2022/08/28 04:41:31;;;;;;;16.23;5.75;;;;;;;23.18;58.34;99139.00;1731880;80;21511;-66
2022/08/28 04:43:58;;;;;;;17.50;4.80;;;;;;;23.17;58.95;99142.70;1719452;81;21610;-67
2022/08/28 04:46:24;;;;;;;15.72;4.67;;;;;;;23.15;59.17;99141.16;1691668;84;21494;-65
2022/08/28 04:48:51;;;;;;;14.70;5.58;;;;;;;23.17;59.33;99149.88;1694419;84;21790;-65
2022/08/28 04:51:19;;;;;;;18.52;5.35;;;;;;;23.19;61.41;99154.10;1724772;81;20991;-67
2022/08/28 04:53:46;;;;;;;16.42;5.50;;;;;;;23.17;63.69;99160.13;1726548;81;20998;-67
2022/08/28 04:56:13;;;;;;;12.55;4.67;;;;;;;23.22;66.57;99167.68;1720550;81;21630;-68
2022/08/28 04:58:41;;;;;;;16.10;4.90;;;;;;;23.22;66.57;99167.68;1680967;82;21065;-65
2022/08/28 05:01:18;;;;;;;15.75;5.37;;;;;;;23.25;66.57;99167.38;1728960;81;22048;-66
2022/08/28 05:03:46;;;;;;;13.80;5.12;;;;;;;23.29;66.20;99164.71;1726481;81;21500;-64
2022/08/28 05:06:14;;;;;;;14.83;4.53;;;;;;;23.31;67.25;99169.41;1728488;81;21585;-66
2022/08/28 05:08:42;;;;;;;16.75;4.83;;;;;;;23.31;67.25;99169.41;1699625;83;21609;-64
2022/08/28 05:11:17;;;;;;;12.43;4.53;;;;;;;23.37;68.46;99176.81;1679675;83;21533;-65
2022/08/28 05:13:45;;;;;;;14.07;4.72;;;;;;;23.41;68.18;99172.80;1708168;82;22182;-64
2022/08/28 05:16:12;;;;;;;11.55;5.10;;;;;;;23.36;67.48;99167.10;1705117;82;21098;-64
2022/08/28 05:18:38;;;;;;;15.88;5.10;;;;;;;23.35;67.87;99163.23;1703108;82;21458;-64
2022/08/28 05:21:15;;;;;;;17.95;4.53;;;;;;;23.37;67.45;99169.27;1707982;82;21473;-63
2022/08/28 05:23:41;;;;;;;12.45;4.70;;;;;;;23.38;67.86;99173.66;1708955;83;21665;-64
2022/08/28 05:26:12;;;;;;;10.25;4.65;;;;;;;23.48;67.85;99174.37;1702993;82;21836;-64
2022/08/28 05:28:39;;;;;;;17.90;5.37;;;;;;;23.59;67.68;99177.28;1706713;83;21427;-69
2022/08/28 05:31:18;;;;;;;12.35;4.97;;;;;;;23.61;67.58;99177.45;1713223;82;21489;-65
2022/08/28 05:33:46;;;;;;;13.13;4.72;;;;;;;23.68;67.44;99180.34;1703857;82;21490;-65
2022/08/28 05:36:13;;;;;;;21.30;5.25;;;;;;;23.77;68.51;99175.83;1706092;83;21568;-64
2022/08/28 05:38:40;;;;;;;;;;;;;;;23.84;66.92;99172.88;1705688;82;21754;-65
2022/08/28 05:41:07;;;;;;;10.05;4.00;;;;;;;23.86;68.58;99173.55;1698635;82;20512;-64
2022/08/28 05:43:34;;;;;;;16.77;5.55;;;;;;;23.80;66.82;99173.70;1702960;83;21036;-65
2022/08/28 05:46:04;;;;;;;15.10;4.90;;;;;;;23.92;66.74;99180.11;1707140;82;21486;-65
2022/08/28 05:48:31;;;;;;;14.28;4.60;;;;;;;24.01;66.91;99183.16;1704413;83;21545;-64
2022/08/28 05:51:06;;;;;;;16.52;5.35;;;;;;;24.04;68.28;99180.16;1695777;83;21999;-64
2022/08/28 05:53:37;;;;;;;10.00;4.97;;;;;;;24.10;67.73;99180.33;1693459;82;21561;-64
2022/08/28 05:56:04;;;;;;;13.98;4.58;;;;;;;24.16;67.33;99179.34;1700760;82;21608;-64
2022/08/28 05:58:33;;;;;;;9.25;4.40;;;;;;;24.29;65.83;99186.42;1703396;83;21446;-64
2022/08/28 06:01:10;;;;;;;11.70;5.00;;;;;;;24.07;65.02;99131.48;1698484;83;21000;-65
2022/08/28 06:03:40;;;;;;;11.97;4.47;;;;;;;24.43;64.20;99179.55;1710365;82;21909;-69
2022/08/28 06:06:07;;;;;;;12.03;4.75;;;;;;;24.51;63.98;99176.06;1700897;82;21601;-64
2022/08/28 06:08:35;;;;;;;11.50;5.00;;;;;;;24.58;63.42;99171.22;1692443;82;21081;-63
2022/08/28 06:11:02;;;;;;;7.55;4.50;;;;;;;24.62;62.90;99179.77;1693434;82;21522;-63
2022/08/28 06:13:29;;;;;;;13.08;5.33;;;;;;;24.68;63.06;99188.52;1690679;84;21044;-64
2022/08/28 06:15:55;;;;;;;14.18;4.87;;;;;;;24.78;61.97;99188.34;1701227;82;21917;-69
2022/08/28 06:18:23;;;;;;;15.13;4.87;;;;;;;24.84;61.66;99196.56;1691302;82;21598;-64
2022/08/28 06:20:49;;;;;;;14.63;5.22;;;;;;;24.88;60.13;99198.41;1724572;81;21475;-61
2022/08/28 06:23:18;;;;;;;15.65;4.95;;;;;;;24.90;60.32;99196.91;1693821;83;21074;-64
2022/08/28 06:25:47;;;;;;;15.15;4.92;;;;;;;24.91;61.08;99201.29;1687884;84;21562;-64
2022/08/28 06:28:17;;;;;;;10.93;5.08;;;;;;;24.95;61.52;99198.08;1726419;81;21835;-62
2022/08/28 06:30:44;;;;;;;15.38;4.35;;;;;;;24.99;61.20;99198.59;1725441;81;21120;-62
2022/08/28 06:33:11;;;;;;;14.68;4.72;;;;;;;25.01;61.60;99192.53;1729979;81;21726;-63
2022/08/28 06:35:47;;;;;;;;;;;;;;;25.06;61.63;99196.39;1727957;80;21545;-62
2022/08/28 06:38:16;;;;;;;16.48;6.08;;;;;;;25.15;60.54;99193.20;1727078;81;20154;-62
2022/08/28 06:40:49;;;;;;;18.40;6.35;;;;;;;25.17;59.98;99192.52;1733783;80;21809;-63
2022/08/28 06:43:16;;;;;;;18.37;6.90;;;;;;;25.21;59.33;99189.81;1734307;81;21588;-64
2022/08/28 06:45:45;;;;;;;12.55;5.42;;;;;;;25.27;59.40;99195.05;1724540;81;21629;-63
2022/08/28 06:48:16;;;;;;;12.73;5.45;;;;;;;25.33;59.92;99201.59;1724631;81;21598;-64
2022/08/28 06:50:46;;;;;;;11.03;4.62;;;;;;;25.40;60.12;99199.39;1729828;81;21589;-63
2022/08/28 06:53:14;;;;;;;13.70;4.78;;;;;;;25.45;58.48;99198.89;1730237;81;22620;-63
2022/08/28 06:55:41;;;;;;;14.07;5.15;;;;;;;25.51;58.50;99199.53;1682833;82;21514;-62
2022/08/28 06:58:09;;;;;;;16.62;5.10;;;;;;;25.59;57.93;99197.33;1742571;80;21540;-63
2022/08/28 07:00:35;;;;;;;;;;;;;;;25.68;56.93;99194.94;1743933;81;21514;-62
2022/08/28 07:03:04;;;;;;;11.35;4.25;;;;;;;25.79;56.01;99199.94;1730993;81;20572;-64
2022/08/28 07:05:33;;;;;;;12.30;4.85;;;;;;;25.82;57.37;99197.40;1728352;81;21806;-65
2022/08/28 07:07:59;;;;;;;14.45;5.22;;;;;;;25.86;55.99;99198.72;1734683;80;21554;-62
2022/08/28 07:10:30;;;;;;;15.30;5.65;;;;;;;25.90;55.41;99196.03;1732021;80;21538;-62
2022/08/28 07:12:59;;;;;;;14.70;5.03;;;;;;;25.96;55.92;99199.91;1735246;80;21493;-62
2022/08/28 07:15:26;;;;;;;12.45;4.58;;;;;;;26.03;55.05;99196.83;1756541;80;21508;-64
2022/08/28 07:17:52;;;;;;;11.48;4.97;;;;;;;26.07;54.77;99190.58;1738097;80;22104;-63
2022/08/28 07:20:19;;;;;;;14.83;4.33;;;;;;;26.11;54.63;99190.06;1745508;80;21523;-63
2022/08/28 07:22:46;;;;;;;18.15;4.97;;;;;;;26.12;55.06;99184.16;1746328;80;21006;-63
2022/08/28 07:25:13;;;;;;;10.43;4.70;;;;;;;26.19;55.43;99185.14;1739925;80;21620;-61
2022/08/28 07:27:39;;;;;;;13.30;4.63;;;;;;;26.22;54.89;99180.23;1732424;80;21517;-65
2022/08/28 07:30:08;;;;;;;19.00;6.37;;;;;;;26.21;55.34;99179.06;1740638;80;22660;-64
2022/08/28 07:32:35;;;;;;;13.15;5.05;;;;;;;26.25;54.62;99174.16;1744246;80;21497;-63
2022/08/28 07:35:03;;;;;;;21.05;4.67;;;;;;;26.31;54.45;99170.22;1742982;81;21483;-63
2022/08/28 07:37:29;;;;;;;15.95;4.55;;;;;;;26.33;53.72;99180.31;1745370;80;22171;-62
2022/08/28 07:39:56;;;;;;;22.50;5.42;;;;;;;26.35;54.50;99177.44;1744014;80;21502;-63
2022/08/28 07:45:09;;;;;;;17.12;5.17;;;;;;;26.47;54.67;99184.11;1746369;80;20978;-63
2022/08/28 07:47:37;;;;;;;21.37;4.97;;;;;;;26.51;54.31;99185.42;1746417;80;21503;-64
2022/08/28 07:50:05;;;;;;;21.37;4.70;;;;;;;26.58;53.49;99184.20;1736959;80;21508;-63
2022/08/28 07:52:32;;;;;;;15.13;4.58;;;;;;;26.63;53.50;99187.21;1747632;79;21486;-64
2022/08/28 07:54:59;;;;;;;19.35;5.25;;;;;;;26.74;52.75;99190.00;1704582;83;21821;-64
2022/08/28 07:57:26;;;;;;;10.58;5.10;;;;;;;26.83;52.33;99190.27;1703547;82;21463;-63
2022/08/28 07:59:53;;;;;;;16.87;5.73;;;;;;;26.86;53.58;99186.35;1701920;83;21058;-63
2022/08/28 08:02:19;;;;;;;13.08;5.12;;;;;;;26.88;54.66;99181.12;1694899;83;21557;-63
2022/08/28 08:04:46;;;;;;;11.35;4.80;;;;;;;26.95;54.86;99184.74;1692251;83;21716;-63
2022/08/28 08:07:13;;;;;;;11.45;5.05;;;;;;;27.03;54.77;99190.60;1693738;82;21888;-64
2022/08/28 08:09:41;;;;;;;15.68;5.33;;;;;;;27.16;54.36;99182.71;1692984;82;20931;-63
2022/08/28 08:12:09;;;;;;;12.03;4.92;;;;;;;27.29;54.15;99180.73;1702677;83;20941;-65
2022/08/28 08:14:37;;;;;;;14.68;5.30;;;;;;;27.44;53.23;99178.56;1707353;83;21529;-65
2022/08/28 08:17:04;;;;;;;10.60;4.78;;;;;;;27.52;53.01;99174.41;1699216;82;21505;-65
2022/08/28 08:21:49;;;;;;;15.50;5.20;;;;;;;27.29;54.44;99173.16;1791543;79;23151;-64
2022/08/28 08:24:19;;;;;;;20.95;5.35;;;;;;;27.82;51.40;99168.50;1764013;79;21506;-63
2022/08/28 08:26:48;;;;;;;22.42;5.42;;;;;;;27.95;50.46;99171.39;1721052;80;21880;-67
2022/08/28 08:29:15;;;;;;;14.38;5.37;;;;;;;28.04;50.36;99166.70;1684177;83;21511;-65
2022/08/28 08:31:41;;;;;;;13.53;4.92;;;;;;;28.14;50.95;99163.68;1715369;81;21494;-63
2022/08/28 08:34:08;;;;;;;10.90;5.80;;;;;;;28.26;51.27;99164.04;1713613;81;21678;-65
2022/08/28 08:36:36;;;;;;;19.70;4.97;;;;;;;28.32;49.33;99158.69;1720215;81;21049;-65
2022/08/28 08:39:07;;;;;;;12.55;4.40;;;;;;;28.39;48.69;99161.47;1709065;82;21840;-66
2022/08/28 08:41:48;;;;;;;12.20;4.87;;;;;;;28.46;48.40;99154.27;1719475;81;21549;-64
2022/08/28 08:44:39;;;;;;;16.85;4.65;;;;;;;28.59;48.58;99157.62;1718215;82;21557;-65
2022/08/28 08:47:41;;;;;;;15.10;5.17;;;;;;;28.68;48.55;99155.10;1707422;82;21545;-63
2022/08/28 08:50:19;;;;;;;17.07;4.53;;;;;;;28.76;47.05;99153.30;1720198;81;21536;-65
2022/08/28 08:53:30;;;;;;;14.65;4.92;;;;;;;28.85;46.16;99144.01;1716121;82;22159;-64
2022/08/28 08:55:58;;;;;;;18.82;5.40;;;;;;;28.87;45.91;99147.35;1723620;81;21557;-66
2022/08/28 08:58:38;;;;;;;10.55;4.78;;;;;;;28.98;44.64;99140.05;1710035;81;21573;-67
2022/08/28 09:01:34;;;;;;;13.95;4.30;;;;;;;29.00;44.42;99143.91;1734671;81;21618;-67
2022/08/28 09:04:23;;;;;;;15.53;5.12;;;;;;;29.04;43.71;99146.02;1706656;83;21345;-69
2022/08/28 09:06:58;;;;;;;11.22;4.35;;;;;;;29.15;43.19;99144.67;1704921;83;21994;-68
2022/08/28 09:09:32;;;;;;;13.83;4.67;;;;;;;29.24;41.58;99149.42;1716565;81;21539;-66
2022/08/28 09:12:16;;;;;;;14.55;3.87;;;;;;;29.30;41.46;99142.68;1733639;80;21572;-67
2022/08/28 09:15:03;;;;;;;15.68;4.25;;;;;;;29.43;40.54;99147.34;1703807;83;21576;-66
2022/08/28 09:17:31;;;;;;;17.75;4.40;;;;;;;29.58;40.79;99148.56;1711378;82;21635;-67
2022/08/28 09:19:59;;;;;;;19.92;5.65;;;;;;;29.80;40.21;99147.97;1707908;82;21576;-66
2022/08/28 09:22:26;;;;;;;;;;;;;;;29.88;39.43;99141.01;1695999;83;21630;-69
2022/08/28 09:24:53;;;;;;;15.47;3.80;;;;;;;29.89;37.69;99141.84;1700142;83;20165;-67
2022/08/28 09:27:28;;;;;;;16.07;4.28;;;;;;;29.87;39.38;99142.03;1702423;83;21509;-67
2022/08/28 09:30:07;;;;;;;10.98;3.55;;;;;;;29.99;38.73;99145.02;1704718;83;21529;-67
2022/08/28 09:32:43;;;;;;;8.85;3.60;;;;;;;30.12;38.34;99147.42;1731805;80;21728;-69
2022/08/28 09:35:30;;;;;;;13.83;4.25;;;;;;;30.22;37.42;99146.00;1761978;79;21542;-65
2022/08/28 09:38:19;;;;;;;12.68;4.30;;;;;;;30.31;36.87;99145.80;1749266;79;21514;-66
2022/08/28 09:43:34;;;;;;;13.50;4.35;;;;;;;30.57;36.17;99133.69;1761407;80;21511;-66
2022/08/28 09:46:28;;;;;;;8.50;3.45;;;;;;;30.71;35.57;99137.22;1737208;80;21847;-71
2022/08/28 09:49:10;;;;;;;20.00;4.58;;;;;;;30.83;35.46;99138.78;1754182;79;21683;-68
2022/08/28 09:51:38;;;;;;;18.52;4.25;;;;;;;30.95;34.92;99136.29;1757212;79;20953;-67
2022/08/28 09:54:16;;;;;;;9.50;4.10;;;;;;;30.91;34.63;99133.19;1733607;80;21497;-67
2022/08/28 09:56:43;;;;;;;15.60;4.15;;;;;;;30.88;34.51;99132.74;1764465;79;21502;-70
2022/08/28 09:59:16;;;;;;;9.20;4.45;;;;;;;30.92;33.94;99142.98;1769971;79;21783;-69
2022/08/28 10:02:04;;;;;;;10.70;3.27;;;;;;;30.94;33.49;99140.06;1768838;79;21455;-67
2022/08/28 10:04:59;;;;;;;14.25;4.10;;;;;;;31.04;33.20;99141.31;1749371;79;21656;-71
2022/08/28 10:07:52;;;;;;;16.75;3.80;;;;;;;31.14;33.31;99137.34;1766053;79;21475;-68
2022/08/28 10:10:42;;;;;;;14.28;4.47;;;;;;;31.17;33.43;99139.08;1753436;79;21650;-65
2022/08/28 10:13:26;;;;;;;15.45;4.10;;;;;;;31.18;31.85;99138.58;1763795;79;21769;-66
2022/08/28 10:16:12;;;;;;;8.45;2.95;;;;;;;31.27;31.61;99129.16;1760927;79;21553;-67
2022/08/28 10:19:06;;;;;;;10.30;3.40;;;;;;;31.34;31.69;99119.62;1748023;80;21432;-66
2022/08/28 10:21:44;;;;;;;9.33;3.37;;;;;;;31.43;31.98;99121.06;1747518;80;21595;-65
2022/08/28 10:24:33;;;;;;;14.05;3.62;;;;;;;31.46;31.16;99121.14;1758541;80;21105;-65
2022/08/28 10:27:25;;;;;;;7.60;3.08;;;;;;;31.52;31.26;99120.34;1743474;80;21830;-67
2022/08/28 10:30:09;;;;;;;10.82;3.77;;;;;;;31.53;30.98;99114.70;1735928;80;21558;-67
2022/08/28 10:33:06;;;;;;;13.95;3.95;;;;;;;31.70;31.08;99112.30;1755539;80;21416;-66
2022/08/28 10:36:11;;;;;;;12.28;4.03;;;;;;;31.73;31.41;99113.23;1635122;85;21626;-65
2022/08/28 10:38:41;;;;;;;14.45;3.67;;;;;;;31.84;31.09;99112.27;1743802;79;21515;-66
2022/08/28 10:41:12;;;;;;;12.30;3.80;;;;;;;31.87;31.26;99109.09;1750558;80;21755;-65
2022/08/28 10:43:46;;;;;;;14.83;3.45;;;;;;;31.85;31.46;99112.55;1736973;79;21451;-69
2022/08/28 10:46:23;;;;;;;8.63;3.17;;;;;;;31.94;30.60;99106.64;1692332;83;21639;-66
2022/08/28 10:48:58;;;;;;;7.37;2.95;;;;;;;32.03;30.84;99103.19;1734480;80;21577;-65
2022/08/28 10:51:42;;;;;;;7.20;3.35;;;;;;;32.13;30.60;99104.06;1720171;82;21496;-64
2022/08/28 10:54:49;;;;;;;10.63;3.37;;;;;;;32.17;30.04;99099.84;1747450;80;21877;-64
2022/08/28 10:57:35;;;;;;;9.55;2.85;;;;;;;32.18;30.04;99105.06;1744194;80;20991;-64
2022/08/28 11:00:13;;;;;;;8.83;3.58;;;;;;;32.23;29.49;99104.93;1738138;80;21578;-64
2022/08/28 11:02:44;;;;;;;9.60;3.17;;;;;;;31.97;29.11;99055.11;1735027;80;21444;-62
2022/08/28 11:05:11;;;;;;;10.80;3.40;;;;;;;32.24;29.49;99100.64;1752313;80;21572;-62
2022/08/28 11:07:43;;;;;;;8.10;2.85;;;;;;;32.35;29.68;99107.27;1751088;80;21534;-62
2022/08/28 11:10:30;;;;;;;6.53;2.87;;;;;;;32.45;28.92;99102.69;1738928;80;21514;-62
2022/08/28 11:12:58;;;;;;;7.85;3.20;;;;;;;32.51;29.29;99095.84;1755918;80;21566;-63
2022/08/28 11:15:35;;;;;;;11.20;4.30;;;;;;;32.64;29.69;99094.09;1733286;80;27147;-62
2022/08/28 11:18:19;;;;;;;6.37;3.60;;;;;;;32.73;29.61;99096.83;1733589;79;21496;-63
2022/08/28 11:21:22;;;;;;;17.40;3.72;;;;;;;32.82;29.64;99096.86;1671397;83;21816;-63
2022/08/28 11:23:54;;;;;;;7.33;3.15;;;;;;;32.81;29.04;99096.53;1716725;81;21495;-62
2022/08/28 11:26:51;;;;;;;10.58;3.65;;;;;;;32.71;29.17;99103.03;1727868;80;21646;-64
2022/08/28 11:30:10;;;;;;;11.50;4.33;;;;;;;32.58;29.55;99101.25;1748429;80;21489;-64
2022/08/28 11:32:54;;;;;;;12.45;3.83;;;;;;;32.59;29.76;99098.31;1649161;84;21720;-66
2022/08/28 11:35:38;;;;;;;13.43;4.25;;;;;;;32.73;30.26;99098.19;1644724;85;21922;-69
2022/08/28 11:38:04;;;;;;;6.95;3.65;;;;;;;32.91;29.92;99098.23;1736431;80;21565;-66
2022/08/28 11:40:39;;;;;;;8.10;3.67;;;;;;;33.02;30.05;99098.53;1758563;79;21522;-66
2022/08/28 11:43:20;;;;;;;9.85;3.90;;;;;;;33.05;30.12;99106.27;1716996;82;21537;-66
2022/08/28 11:46:01;;;;;;;10.60;3.87;;;;;;;33.13;30.23;99100.55;1745267;79;21447;-66
2022/08/28 11:48:41;;;;;;;8.10;4.03;;;;;;;33.31;29.87;99099.20;1751442;80;21894;-67
2022/08/28 11:51:19;;;;;;;12.33;4.17;;;;;;;33.40;29.81;99098.88;1747601;80;21693;-68
2022/08/28 11:54:14;;;;;;;6.85;3.65;;;;;;;33.46;30.19;99100.72;1753471;79;21041;-67
2022/08/28 11:57:03;;;;;;;10.15;4.00;;;;;;;33.55;29.81;99097.45;1725964;80;21526;-66
2022/08/28 12:00:04;;;;;;;12.37;4.17;;;;;;;33.55;30.07;99107.52;1741272;80;20966;-67
2022/08/28 12:02:43;;;;;;;12.73;3.62;;;;;;;33.62;30.04;99100.61;1739510;80;21804;-68
2022/08/28 12:05:18;;;;;;;11.40;3.87;;;;;;;33.64;30.27;99102.61;1750051;80;21608;-67